createdAt,value
2018-05-12T00:00:31.885Z,0
2018-05-12T00:01:12.482Z,0
2018-05-12T00:01:53.050Z,0
2018-05-12T00:02:33.654Z,0
2018-05-12T00:03:14.239Z,0
2018-05-12T00:03:54.858Z,0
2018-05-12T00:04:35.432Z,0
2018-05-12T00:05:15.982Z,0
2018-05-12T00:05:56.566Z,0
2018-05-12T00:06:37.141Z,0
2018-05-12T00:07:17.676Z,0
2018-05-12T00:07:58.229Z,0
2018-05-12T00:08:38.780Z,0
2018-05-12T00:09:19.327Z,0
2018-05-12T00:09:59.869Z,0
2018-05-12T00:10:40.436Z,0
2018-05-12T00:11:21.050Z,0
2018-05-12T00:12:01.634Z,0
2018-05-12T00:12:42.168Z,0
2018-05-12T00:13:22.744Z,0
2018-05-12T00:14:03.302Z,0
2018-05-12T00:14:43.868Z,0
2018-05-12T00:15:24.488Z,0
2018-05-12T00:16:05.042Z,0
2018-05-12T00:16:45.584Z,0
2018-05-12T00:17:26.159Z,0
2018-05-12T00:18:06.710Z,0
2018-05-12T00:18:47.277Z,0
2018-05-12T00:19:27.839Z,0
2018-05-12T00:20:08.389Z,0
2018-05-12T00:20:48.970Z,0
2018-05-12T00:21:29.527Z,0
2018-05-12T00:22:10.085Z,0
2018-05-12T00:22:50.648Z,0
2018-05-12T00:23:31.210Z,0
2018-05-12T00:24:11.766Z,0
2018-05-12T00:24:52.320Z,0
2018-05-12T00:25:32.887Z,0
2018-05-12T00:26:13.460Z,0
2018-05-12T00:26:54.041Z,0
2018-05-12T00:27:34.608Z,0
2018-05-12T00:28:15.180Z,0
2018-05-12T00:28:55.713Z,0
2018-05-12T00:29:36.260Z,0
2018-05-12T00:30:16.869Z,0
2018-05-12T00:30:57.372Z,0
2018-05-12T00:31:37.983Z,0
2018-05-12T00:32:18.501Z,0
2018-05-12T00:32:59.045Z,0
2018-05-12T00:33:39.609Z,0
2018-05-12T00:34:20.157Z,0
2018-05-12T00:35:00.713Z,0
2018-05-12T00:35:41.283Z,0
2018-05-12T00:36:21.851Z,0
2018-05-12T00:37:02.421Z,0
2018-05-12T00:37:42.993Z,0
2018-05-12T00:38:23.556Z,0
2018-05-12T00:39:04.127Z,0
2018-05-12T00:39:44.703Z,0
2018-05-12T00:40:25.274Z,0
2018-05-12T00:41:05.836Z,0
2018-05-12T00:41:46.405Z,0
2018-05-12T00:42:26.973Z,0
2018-05-12T00:43:07.546Z,0
2018-05-12T00:43:48.112Z,0
2018-05-12T00:44:28.709Z,0
2018-05-12T00:45:09.303Z,0
2018-05-12T00:45:49.865Z,0
2018-05-12T00:46:30.432Z,0
2018-05-12T00:47:10.995Z,0
2018-05-12T00:47:51.551Z,0
2018-05-12T00:48:32.099Z,0
2018-05-12T00:49:12.665Z,0
2018-05-12T00:49:53.202Z,0
2018-05-12T00:50:33.760Z,0
2018-05-12T00:51:14.327Z,0
2018-05-12T00:51:54.874Z,0
2018-05-12T00:52:35.422Z,0
2018-05-12T00:53:15.982Z,0
2018-05-12T00:53:56.555Z,0
2018-05-12T00:54:37.113Z,0
2018-05-12T00:55:17.680Z,0
2018-05-12T00:55:58.257Z,0
2018-05-12T00:56:38.810Z,0
2018-05-12T00:57:19.384Z,0
2018-05-12T00:57:59.952Z,0
2018-05-12T00:58:40.512Z,0
2018-05-12T00:59:21.079Z,0
2018-05-12T01:00:01.642Z,0
2018-05-12T01:00:42.191Z,0
2018-05-12T01:01:22.744Z,0
2018-05-12T01:02:03.321Z,0
2018-05-12T01:02:43.884Z,0
2018-05-12T01:03:24.470Z,0
2018-05-12T01:04:05.021Z,0
2018-05-12T01:04:45.583Z,0
2018-05-12T01:05:26.168Z,0
2018-05-12T01:06:06.805Z,0
2018-05-12T01:06:47.365Z,0
2018-05-12T01:07:27.924Z,0
2018-05-12T01:08:08.503Z,0
2018-05-12T01:08:49.137Z,0
2018-05-12T01:09:29.753Z,0
2018-05-12T01:10:10.312Z,0
2018-05-12T01:10:50.880Z,0
2018-05-12T01:11:31.432Z,0
2018-05-12T01:12:12.001Z,0
2018-05-12T01:12:52.539Z,0
2018-05-12T01:13:33.089Z,0
2018-05-12T01:14:13.639Z,0
2018-05-12T01:14:54.182Z,0
2018-05-12T01:15:34.748Z,0
2018-05-12T01:16:15.313Z,0
2018-05-12T01:16:55.918Z,0
2018-05-12T01:17:36.472Z,0
2018-05-12T01:18:17.042Z,0
2018-05-12T01:18:57.600Z,0
2018-05-12T01:19:38.159Z,0
2018-05-12T01:20:18.721Z,0
2018-05-12T01:20:59.274Z,0
2018-05-12T01:21:39.850Z,0
2018-05-12T01:22:20.426Z,0
2018-05-12T01:23:00.998Z,0
2018-05-12T01:23:41.570Z,0
2018-05-12T01:24:22.121Z,0
2018-05-12T01:25:02.680Z,0
2018-05-12T01:25:43.240Z,0
2018-05-12T01:26:23.847Z,0
2018-05-12T01:27:04.443Z,0
2018-05-12T01:27:44.972Z,0
2018-05-12T01:28:25.534Z,0
2018-05-12T01:29:06.084Z,0
2018-05-12T01:29:46.660Z,0
2018-05-12T01:30:27.240Z,0
2018-05-12T01:31:07.798Z,0
2018-05-12T01:31:48.370Z,0
2018-05-12T01:32:28.925Z,0
2018-05-12T01:33:09.499Z,0
2018-05-12T01:33:50.052Z,0
2018-05-12T01:34:30.628Z,0
2018-05-12T01:35:11.192Z,0
2018-05-12T01:35:51.782Z,0
2018-05-12T01:36:32.327Z,0
2018-05-12T01:37:12.899Z,0
2018-05-12T01:37:53.479Z,0
2018-05-12T01:38:34.016Z,0
2018-05-12T01:39:14.589Z,0
2018-05-12T01:39:55.147Z,0
2018-05-12T01:40:35.702Z,0
2018-05-12T01:41:16.273Z,0
2018-05-12T01:41:56.857Z,0
2018-05-12T01:42:37.410Z,0
2018-05-12T01:43:17.957Z,0
2018-05-12T01:43:58.534Z,0
2018-05-12T01:44:39.127Z,0
2018-05-12T01:45:19.675Z,0
2018-05-12T01:46:00.229Z,0
2018-05-12T01:46:40.778Z,0
2018-05-12T01:47:21.362Z,0
2018-05-12T01:48:01.956Z,0
2018-05-12T01:48:42.468Z,0
2018-05-12T01:49:23.053Z,0
2018-05-12T01:50:03.708Z,0
2018-05-12T01:50:44.225Z,0
2018-05-12T01:51:24.774Z,0
2018-05-12T01:52:05.295Z,0
2018-05-12T01:52:45.904Z,0
2018-05-12T01:53:26.479Z,0
2018-05-12T01:54:07.039Z,0
2018-05-12T01:54:47.607Z,0
2018-05-12T01:55:28.155Z,0
2018-05-12T01:56:08.710Z,0
2018-05-12T01:56:49.286Z,0
2018-05-12T01:57:29.861Z,0
2018-05-12T01:58:10.432Z,0
2018-05-12T01:58:51.009Z,0
2018-05-12T01:59:31.522Z,0
2018-05-12T02:00:12.104Z,0
2018-05-12T02:00:52.676Z,0
2018-05-12T02:01:33.284Z,0
2018-05-12T02:02:13.901Z,0
2018-05-12T02:02:54.514Z,0
2018-05-12T02:03:35.073Z,0
2018-05-12T02:04:15.649Z,0
2018-05-12T02:04:56.293Z,0
2018-05-12T02:05:36.831Z,0
2018-05-12T02:06:17.408Z,0
2018-05-12T02:06:58.042Z,0
2018-05-12T02:07:38.520Z,0
2018-05-12T02:08:19.089Z,0
2018-05-12T02:08:59.669Z,0
2018-05-12T02:09:40.243Z,0
2018-05-12T02:10:20.919Z,0
2018-05-12T02:11:01.326Z,0
2018-05-12T02:11:41.916Z,0
2018-05-12T02:12:22.483Z,0
2018-05-12T02:13:03.060Z,0
2018-05-12T02:13:43.607Z,0
2018-05-12T02:14:24.217Z,0
2018-05-12T02:15:04.729Z,0
2018-05-12T02:15:45.293Z,0
2018-05-12T02:16:25.847Z,0
2018-05-12T02:17:06.411Z,0
2018-05-12T02:17:47.008Z,0
2018-05-12T02:18:27.577Z,0
2018-05-12T02:19:08.172Z,0
2018-05-12T02:19:48.727Z,0
2018-05-12T02:20:29.275Z,0
2018-05-12T02:21:09.828Z,0
2018-05-12T02:21:50.391Z,0
2018-05-12T02:22:30.946Z,0
2018-05-12T02:23:11.530Z,0
2018-05-12T02:23:52.107Z,0
2018-05-12T02:24:32.674Z,0
2018-05-12T02:25:13.255Z,0
2018-05-12T02:25:53.840Z,0
2018-05-12T02:26:34.459Z,0
2018-05-12T02:27:15.009Z,0
2018-05-12T02:27:55.548Z,0
2018-05-12T02:28:36.096Z,0
2018-05-12T02:29:16.688Z,0
2018-05-12T02:29:57.206Z,0
2018-05-12T02:30:37.769Z,0
2018-05-12T02:31:18.326Z,0
2018-05-12T02:31:58.876Z,0
2018-05-12T02:32:39.448Z,0
2018-05-12T02:33:20.017Z,0
2018-05-12T02:34:00.576Z,0
2018-05-12T02:34:41.131Z,0
2018-05-12T02:35:21.689Z,0
2018-05-12T02:36:02.258Z,0
2018-05-12T02:36:42.812Z,0
2018-05-12T02:37:23.373Z,0
2018-05-12T02:38:03.932Z,0
2018-05-12T02:38:44.480Z,0
2018-05-12T02:39:25.042Z,0
2018-05-12T02:40:05.627Z,0
2018-05-12T02:40:46.205Z,0
2018-05-12T02:41:26.790Z,0
2018-05-12T02:42:07.469Z,0
2018-05-12T02:42:48.049Z,0
2018-05-12T02:43:28.611Z,0
2018-05-12T02:44:09.177Z,0
2018-05-12T02:44:49.729Z,0
2018-05-12T02:45:30.283Z,0
2018-05-12T02:46:10.849Z,0
2018-05-12T02:46:51.411Z,0
2018-05-12T02:47:31.983Z,0
2018-05-12T02:48:12.549Z,0
2018-05-12T02:48:53.115Z,0
2018-05-12T02:49:33.677Z,0
2018-05-12T02:50:14.241Z,0
2018-05-12T02:50:54.807Z,0
2018-05-12T02:51:35.355Z,0
2018-05-12T02:52:15.907Z,0
2018-05-12T02:52:56.465Z,0
2018-05-12T02:53:37.010Z,0
2018-05-12T02:54:17.571Z,0
2018-05-12T02:54:58.142Z,0
2018-05-12T02:55:38.714Z,0
2018-05-12T02:56:19.271Z,0
2018-05-12T02:56:59.831Z,0
2018-05-12T02:57:40.386Z,0
2018-05-12T02:58:20.965Z,0
2018-05-12T02:59:01.515Z,0
2018-05-12T02:59:42.071Z,0
2018-05-12T03:00:22.635Z,0
2018-05-12T03:01:03.220Z,0
2018-05-12T03:01:43.794Z,0
2018-05-12T03:02:24.346Z,0
2018-05-12T03:03:04.915Z,0
2018-05-12T03:03:45.468Z,0
2018-05-12T03:04:26.050Z,0
2018-05-12T03:05:06.631Z,0
2018-05-12T03:05:47.167Z,0
2018-05-12T03:06:27.740Z,0
2018-05-12T03:07:08.305Z,0
2018-05-12T03:07:48.934Z,0
2018-05-12T03:08:29.491Z,0
2018-05-12T03:09:10.057Z,0
2018-05-12T03:09:50.595Z,0
2018-05-12T03:10:31.156Z,0
2018-05-12T03:11:11.708Z,0
2018-05-12T03:11:52.282Z,0
2018-05-12T03:12:32.846Z,0
2018-05-12T03:13:13.416Z,0
2018-05-12T03:13:53.992Z,0
2018-05-12T03:14:34.548Z,0
2018-05-12T03:15:15.108Z,0
2018-05-12T03:15:55.677Z,0
2018-05-12T03:16:36.275Z,0
2018-05-12T03:17:16.773Z,0
2018-05-12T03:17:57.346Z,0
2018-05-12T03:18:37.916Z,0
2018-05-12T03:19:18.470Z,0
2018-05-12T03:19:59.059Z,0
2018-05-12T03:20:39.640Z,0
2018-05-12T03:21:20.212Z,0
2018-05-12T03:22:00.799Z,0
2018-05-12T03:22:41.385Z,0
2018-05-12T03:23:21.947Z,0
2018-05-12T03:24:02.498Z,0
2018-05-12T03:24:43.084Z,0
2018-05-12T03:25:23.652Z,0
2018-05-12T03:26:04.216Z,0
2018-05-12T03:26:44.802Z,0
2018-05-12T03:27:25.375Z,0
2018-05-12T03:28:05.926Z,0
2018-05-12T03:28:46.535Z,0
2018-05-12T03:29:27.093Z,0
2018-05-12T03:30:07.657Z,0
2018-05-12T03:30:48.216Z,0
2018-05-12T03:31:28.788Z,0
2018-05-12T03:32:09.331Z,0
2018-05-12T03:32:49.916Z,0
2018-05-12T03:33:30.481Z,0
2018-05-12T03:34:11.031Z,0
2018-05-12T03:34:51.591Z,0
2018-05-12T03:35:32.157Z,0
2018-05-12T03:36:12.718Z,0
2018-05-12T03:36:53.264Z,0
2018-05-12T03:37:33.828Z,0
2018-05-12T03:38:14.374Z,0
2018-05-12T03:38:54.930Z,0
2018-05-12T03:39:35.497Z,0
2018-05-12T03:40:16.067Z,5
2018-05-12T03:40:56.654Z,5
2018-05-12T03:41:37.232Z,5
2018-05-12T03:42:17.784Z,5
2018-05-12T03:42:58.348Z,5
2018-05-12T03:43:38.913Z,5
2018-05-12T03:44:20.270Z,5
2018-05-12T03:45:01.009Z,5
2018-05-12T03:45:41.893Z,5
2018-05-12T03:46:22.767Z,5
2018-05-12T03:47:03.558Z,5
2018-05-12T03:47:44.137Z,5
2018-05-12T03:48:24.684Z,5
2018-05-12T03:49:05.453Z,5
2018-05-12T03:49:46.156Z,5
2018-05-12T03:50:26.765Z,5
2018-05-12T03:51:07.393Z,5
2018-05-12T03:51:48.125Z,5
2018-05-12T03:52:28.892Z,5
2018-05-12T03:53:09.541Z,5
2018-05-12T03:53:50.316Z,5
2018-05-12T03:54:30.879Z,5
2018-05-12T03:55:11.441Z,5
2018-05-12T03:55:51.993Z,5
2018-05-12T03:56:32.549Z,5
2018-05-12T03:57:13.109Z,5
2018-05-12T03:57:53.715Z,10
2018-05-12T03:58:34.540Z,10
2018-05-12T03:59:15.103Z,10
2018-05-12T03:59:56.147Z,10
2018-05-12T04:00:36.773Z,10
2018-05-12T04:01:17.574Z,10
2018-05-12T04:01:58.455Z,10
2018-05-12T04:02:39.254Z,10
2018-05-12T04:03:19.975Z,10
2018-05-12T04:04:01.007Z,10
2018-05-12T04:04:41.684Z,10
2018-05-12T04:05:22.284Z,10
2018-05-12T04:06:02.853Z,10
2018-05-12T04:06:43.458Z,10
2018-05-12T04:07:24.041Z,10
2018-05-12T04:08:04.613Z,10
2018-05-12T04:08:45.218Z,10
2018-05-12T04:09:25.757Z,15
2018-05-12T04:10:06.312Z,15
2018-05-12T04:10:46.888Z,15
2018-05-12T04:11:27.438Z,15
2018-05-12T04:12:07.992Z,15
2018-05-12T04:12:48.532Z,15
2018-05-12T04:13:29.173Z,15
2018-05-12T04:14:09.699Z,15
2018-05-12T04:14:50.325Z,15
2018-05-12T04:15:30.872Z,15
2018-05-12T04:16:11.504Z,15
2018-05-12T04:16:52.078Z,15
2018-05-12T04:17:32.692Z,15
2018-05-12T04:18:13.219Z,15
2018-05-12T04:18:53.781Z,20
2018-05-12T04:19:34.345Z,20
2018-05-12T04:20:14.887Z,20
2018-05-12T04:20:55.437Z,20
2018-05-12T04:21:36.019Z,25
2018-05-12T04:22:16.569Z,25
2018-05-12T04:22:57.236Z,25
2018-05-12T04:23:37.785Z,25
2018-05-12T04:24:18.341Z,25
2018-05-12T04:24:58.886Z,25
2018-05-12T04:25:39.490Z,25
2018-05-12T04:26:20.059Z,25
2018-05-12T04:27:00.614Z,30
2018-05-12T04:27:41.204Z,30
2018-05-12T04:28:21.806Z,30
2018-05-12T04:29:02.374Z,35
2018-05-12T04:29:42.930Z,40
2018-05-12T04:30:23.466Z,45
2018-05-12T04:31:04.062Z,50
2018-05-12T04:31:44.631Z,50
2018-05-12T04:32:25.241Z,55
2018-05-12T04:33:05.805Z,55
2018-05-12T04:33:46.349Z,60
2018-05-12T04:34:26.973Z,60
2018-05-12T04:35:07.577Z,60
2018-05-12T04:35:48.180Z,60
2018-05-12T04:36:28.741Z,65
2018-05-12T04:37:09.304Z,65
2018-05-12T04:37:49.913Z,65
2018-05-12T04:38:30.458Z,70
2018-05-12T04:39:11.029Z,70
2018-05-12T04:39:51.672Z,70
2018-05-12T04:40:32.234Z,70
2018-05-12T04:41:12.797Z,75
2018-05-12T04:41:53.460Z,75
2018-05-12T04:42:33.973Z,75
2018-05-12T04:43:14.634Z,80
2018-05-12T04:43:55.130Z,80
2018-05-12T04:44:35.741Z,85
2018-05-12T04:45:16.313Z,85
2018-05-12T04:45:56.901Z,90
2018-05-12T04:46:37.500Z,90
2018-05-12T04:47:18.081Z,90
2018-05-12T04:48:00.944Z,90
2018-05-12T04:48:41.498Z,95
2018-05-12T04:49:22.049Z,95
2018-05-12T04:50:02.607Z,100
2018-05-12T04:50:43.165Z,100
2018-05-12T04:51:23.745Z,100
2018-05-12T04:52:04.305Z,100
2018-05-12T04:52:44.882Z,100
2018-05-12T04:53:25.475Z,100
2018-05-12T04:54:06.033Z,100
2018-05-12T04:54:46.608Z,100
2018-05-12T04:55:27.161Z,105
2018-05-12T04:56:07.720Z,105
2018-05-12T04:56:48.317Z,105
2018-05-12T04:57:28.882Z,110
2018-05-12T04:58:09.436Z,110
2018-05-12T04:58:50.001Z,115
2018-05-12T04:59:30.563Z,115
2018-05-12T05:00:11.123Z,115
2018-05-12T05:00:51.703Z,120
2018-05-12T05:01:32.265Z,120
2018-05-12T05:02:12.841Z,120
2018-05-12T05:02:53.398Z,120
2018-05-12T05:03:33.957Z,125
2018-05-12T05:04:14.508Z,125
2018-05-12T05:04:55.071Z,125
2018-05-12T05:05:35.660Z,125
2018-05-12T05:06:16.235Z,125
2018-05-12T05:06:56.847Z,125
2018-05-12T05:07:37.394Z,130
2018-05-12T05:08:17.993Z,130
2018-05-12T05:08:58.529Z,135
2018-05-12T05:09:39.091Z,135
2018-05-12T05:10:19.658Z,140
2018-05-12T05:11:00.217Z,140
2018-05-12T05:11:40.782Z,145
2018-05-12T05:12:21.338Z,145
2018-05-12T05:13:01.892Z,145
2018-05-12T05:13:42.537Z,150
2018-05-12T05:14:23.072Z,150
2018-05-12T05:15:03.635Z,155
2018-05-12T05:15:44.200Z,155
2018-05-12T05:16:24.758Z,155
2018-05-12T05:17:05.328Z,155
2018-05-12T05:17:45.936Z,160
2018-05-12T05:18:26.536Z,160
2018-05-12T05:19:07.101Z,160
2018-05-12T05:19:47.670Z,165
2018-05-12T05:20:28.387Z,165
2018-05-12T05:21:10.203Z,165
2018-05-12T05:21:50.668Z,170
2018-05-12T05:22:31.234Z,170
2018-05-12T05:23:11.805Z,170
2018-05-12T05:23:52.470Z,175
2018-05-12T05:24:33.092Z,175
2018-05-12T05:25:13.710Z,175
2018-05-12T05:25:54.307Z,180
2018-05-12T05:26:34.874Z,185
2018-05-12T05:27:15.440Z,185
2018-05-12T05:27:56.034Z,190
2018-05-12T05:28:36.602Z,190
2018-05-12T05:29:17.168Z,195
2018-05-12T05:29:57.724Z,200
2018-05-12T05:30:38.303Z,200
2018-05-12T05:31:18.830Z,250
2018-05-12T05:31:59.399Z,425
2018-05-12T05:32:39.962Z,645
2018-05-12T05:33:20.523Z,795
2018-05-12T05:34:01.091Z,845
2018-05-12T05:34:41.655Z,795
2018-05-12T05:35:22.236Z,780
2018-05-12T05:36:02.792Z,855
2018-05-12T05:36:43.358Z,930
2018-05-12T05:37:23.916Z,960
2018-05-12T05:38:04.476Z,955
2018-05-12T05:38:45.026Z,965
2018-05-12T05:39:25.567Z,985
2018-05-12T05:40:06.132Z,1030
2018-05-12T05:40:46.711Z,995
2018-05-12T05:41:27.279Z,965
2018-05-12T05:42:07.848Z,985
2018-05-12T05:42:48.420Z,1010
2018-05-12T05:43:28.990Z,1000
2018-05-12T05:44:09.572Z,1015
2018-05-12T05:44:50.144Z,980
2018-05-12T05:45:30.723Z,1045
2018-05-12T05:46:11.299Z,1065
2018-05-12T05:46:51.860Z,1060
2018-05-12T05:47:32.420Z,1065
2018-05-12T05:48:12.966Z,1070
2018-05-12T05:48:53.540Z,1060
2018-05-12T05:49:34.111Z,1025
2018-05-12T05:50:14.744Z,990
2018-05-12T05:50:55.252Z,1015
2018-05-12T05:51:35.812Z,1015
2018-05-12T05:52:16.377Z,1040
2018-05-12T05:52:56.969Z,1050
2018-05-12T05:53:37.545Z,1035
2018-05-12T05:54:18.107Z,1040
2018-05-12T05:54:58.699Z,985
2018-05-12T05:55:39.262Z,995
2018-05-12T05:56:19.839Z,1020
2018-05-12T05:57:00.416Z,1070
2018-05-12T05:57:40.980Z,1005
2018-05-12T05:58:21.552Z,955
2018-05-12T05:59:02.126Z,885
2018-05-12T05:59:42.708Z,905
2018-05-12T06:00:23.266Z,870
2018-05-12T06:01:03.831Z,980
2018-05-12T06:01:44.379Z,1060
2018-05-12T06:02:24.956Z,1035
2018-05-12T06:03:05.526Z,880
2018-05-12T06:03:46.081Z,830
2018-05-12T06:04:26.673Z,810
2018-05-12T06:05:07.240Z,895
2018-05-12T06:05:47.829Z,985
2018-05-12T06:06:28.412Z,1115
2018-05-12T06:07:09.067Z,1055
2018-05-12T06:07:49.542Z,1055
2018-05-12T06:08:30.110Z,1055
2018-05-12T06:09:10.675Z,970
2018-05-12T06:09:51.234Z,645
2018-05-12T06:10:31.809Z,700
2018-05-12T06:11:12.383Z,795
2018-05-12T06:11:52.946Z,780
2018-05-12T06:12:33.510Z,495
2018-05-12T06:13:14.079Z,420
2018-05-12T06:13:54.679Z,360
2018-05-12T06:14:35.245Z,380
2018-05-12T06:15:15.826Z,465
2018-05-12T06:15:56.381Z,410
2018-05-12T06:16:36.949Z,380
2018-05-12T06:17:17.527Z,315
2018-05-12T06:17:58.192Z,245
2018-05-12T06:18:38.668Z,215
2018-05-12T06:19:19.236Z,205
2018-05-12T06:19:59.803Z,200
2018-05-12T06:20:40.363Z,205
2018-05-12T06:21:20.936Z,215
2018-05-12T06:22:01.502Z,235
2018-05-12T06:22:42.070Z,265
2018-05-12T06:23:22.626Z,270
2018-05-12T06:24:03.197Z,265
2018-05-12T06:24:43.773Z,265
2018-05-12T06:25:24.354Z,250
2018-05-12T06:26:04.911Z,250
2018-05-12T06:26:45.473Z,255
2018-05-12T06:27:26.051Z,245
2018-05-12T06:28:06.620Z,230
2018-05-12T06:28:47.198Z,225
2018-05-12T06:29:27.773Z,245
2018-05-12T06:30:08.336Z,225
2018-05-12T06:30:48.908Z,210
2018-05-12T06:31:29.493Z,210
2018-05-12T06:32:10.052Z,210
2018-05-12T06:32:50.641Z,215
2018-05-12T06:33:31.293Z,200
2018-05-12T06:34:11.784Z,195
2018-05-12T06:34:52.366Z,190
2018-05-12T06:35:32.938Z,190
2018-05-12T06:36:13.564Z,185
2018-05-12T06:36:54.080Z,180
2018-05-12T06:37:34.658Z,175
2018-05-12T06:38:15.222Z,180
2018-05-12T06:38:55.774Z,180
2018-05-12T06:39:36.339Z,185
2018-05-12T06:40:16.905Z,200
2018-05-12T06:40:57.464Z,205
2018-05-12T06:41:38.050Z,215
2018-05-12T06:42:18.622Z,225
2018-05-12T06:42:59.232Z,230
2018-05-12T06:43:39.795Z,255
2018-05-12T06:44:20.356Z,235
2018-05-12T06:45:00.950Z,220
2018-05-12T06:45:41.570Z,215
2018-05-12T06:46:22.136Z,230
2018-05-12T06:47:02.703Z,255
2018-05-12T06:47:43.265Z,280
2018-05-12T06:48:23.829Z,350
2018-05-12T06:49:04.393Z,295
2018-05-12T06:49:44.971Z,295
2018-05-12T06:50:25.542Z,300
2018-05-12T06:51:06.102Z,345
2018-05-12T06:51:46.675Z,440
2018-05-12T06:52:27.231Z,830
2018-05-12T06:53:07.803Z,560
2018-05-12T06:53:48.378Z,475
2018-05-12T06:54:28.974Z,565
2018-05-12T06:55:09.614Z,795
2018-05-12T06:55:50.179Z,490
2018-05-12T06:56:30.767Z,535
2018-05-12T06:57:11.327Z,535
2018-05-12T06:57:51.904Z,395
2018-05-12T06:58:32.479Z,335
2018-05-12T06:59:13.035Z,285
2018-05-12T06:59:53.607Z,205
2018-05-12T07:00:34.176Z,185
2018-05-12T07:01:14.782Z,165
2018-05-12T07:01:55.321Z,150
2018-05-12T07:02:35.881Z,150
2018-05-12T07:03:16.446Z,155
2018-05-12T07:03:57.022Z,175
2018-05-12T07:04:37.581Z,210
2018-05-12T07:05:18.151Z,240
2018-05-12T07:05:58.716Z,280
2018-05-12T07:06:39.299Z,310
2018-05-12T07:07:19.883Z,170
2018-05-12T07:08:00.498Z,150
2018-05-12T07:08:41.072Z,150
2018-05-12T07:09:21.628Z,175
2018-05-12T07:10:02.225Z,250
2018-05-12T07:10:42.790Z,235
2018-05-12T07:11:23.369Z,270
2018-05-12T07:12:03.926Z,400
2018-05-12T07:12:44.589Z,360
2018-05-12T07:13:25.166Z,380
2018-05-12T07:14:05.727Z,485
2018-05-12T07:14:47.089Z,505
2018-05-12T07:15:27.681Z,665
2018-05-12T07:16:08.258Z,495
2018-05-12T07:16:48.819Z,505
2018-05-12T07:17:29.397Z,675
2018-05-12T07:18:09.970Z,655
2018-05-12T07:18:50.537Z,640
2018-05-12T07:19:31.199Z,615
2018-05-12T07:20:11.709Z,350
2018-05-12T07:20:52.276Z,375
2018-05-12T07:21:33.296Z,385
2018-05-12T07:22:13.886Z,545
2018-05-12T07:22:54.435Z,360
2018-05-12T07:23:35.018Z,395
2018-05-12T07:24:15.555Z,620
2018-05-12T07:24:56.104Z,375
2018-05-12T07:25:36.719Z,370
2018-05-12T07:26:17.248Z,455
2018-05-12T07:26:57.833Z,600
2018-05-12T07:27:38.430Z,610
2018-05-12T07:28:18.997Z,610
2018-05-12T07:28:59.568Z,605
2018-05-12T07:29:40.143Z,640
2018-05-12T07:30:20.755Z,635
2018-05-12T07:31:01.318Z,635
2018-05-12T07:31:41.892Z,620
2018-05-12T07:32:22.462Z,455
2018-05-12T07:33:03.019Z,490
2018-05-12T07:33:43.597Z,370
2018-05-12T07:34:24.166Z,500
2018-05-12T07:35:04.730Z,180
2018-05-12T07:35:45.322Z,160
2018-05-12T07:36:25.901Z,150
2018-05-12T07:37:06.470Z,145
2018-05-12T07:37:47.057Z,145
2018-05-12T07:38:27.623Z,145
2018-05-12T07:39:08.380Z,140
2018-05-12T07:39:48.878Z,135
2018-05-12T07:40:29.431Z,125
2018-05-12T07:41:10.010Z,120
2018-05-12T07:41:50.586Z,115
2018-05-12T07:42:31.170Z,115
2018-05-12T07:43:11.721Z,115
2018-05-12T07:43:52.281Z,120
2018-05-12T07:44:32.868Z,130
2018-05-12T07:45:13.466Z,135
2018-05-12T07:45:54.024Z,145
2018-05-12T07:46:34.610Z,150
2018-05-12T07:47:15.244Z,160
2018-05-12T07:47:55.807Z,160
2018-05-12T07:48:36.401Z,165
2018-05-12T07:49:17.017Z,170
2018-05-12T07:49:57.561Z,175
2018-05-12T07:50:38.113Z,180
2018-05-12T07:51:19.551Z,190
2018-05-12T07:51:59.268Z,195
2018-05-12T07:52:39.843Z,180
2018-05-12T07:53:20.427Z,175
2018-05-12T07:54:01.029Z,175
2018-05-12T07:54:41.604Z,175
2018-05-12T07:55:22.179Z,175
2018-05-12T07:56:02.883Z,185
2018-05-12T07:56:43.501Z,200
2018-05-12T07:57:24.260Z,210
2018-05-12T07:58:04.852Z,225
2018-05-12T07:58:45.411Z,250
2018-05-12T07:59:25.997Z,230
2018-05-12T08:00:06.578Z,225
2018-05-12T08:00:47.147Z,230
2018-05-12T08:01:27.714Z,225
2018-05-12T08:02:08.280Z,215
2018-05-12T08:02:48.849Z,215
2018-05-12T08:03:29.525Z,255
2018-05-12T08:04:10.014Z,245
2018-05-12T08:04:50.583Z,195
2018-05-12T08:05:31.161Z,190
2018-05-12T08:06:11.757Z,180
2018-05-12T08:06:52.317Z,185
2018-05-12T08:07:32.913Z,185
2018-05-12T08:08:13.458Z,185
2018-05-12T08:08:54.026Z,190
2018-05-12T08:09:34.612Z,190
2018-05-12T08:10:15.176Z,200
2018-05-12T08:10:55.739Z,205
2018-05-12T08:11:36.323Z,215
2018-05-12T08:12:16.899Z,225
2018-05-12T08:12:57.479Z,235
2018-05-12T08:13:38.043Z,250
2018-05-12T08:14:18.603Z,275
2018-05-12T08:14:59.155Z,265
2018-05-12T08:15:39.715Z,265
2018-05-12T08:16:20.267Z,250
2018-05-12T08:17:00.828Z,220
2018-05-12T08:17:41.394Z,215
2018-05-12T08:18:21.954Z,220
2018-05-12T08:19:02.607Z,215
2018-05-12T08:19:43.187Z,215
2018-05-12T08:20:23.764Z,215
2018-05-12T08:21:04.323Z,215
2018-05-12T08:21:44.881Z,210
2018-05-12T08:22:25.455Z,205
2018-05-12T08:23:06.049Z,210
2018-05-12T08:23:46.626Z,210
2018-05-12T08:24:27.183Z,210
2018-05-12T08:25:07.758Z,215
2018-05-12T08:25:48.339Z,225
2018-05-12T08:26:28.970Z,225
2018-05-12T08:27:09.692Z,225
2018-05-12T08:27:50.291Z,230
2018-05-12T08:28:30.953Z,235
2018-05-12T08:29:11.550Z,240
2018-05-12T08:29:52.121Z,250
2018-05-12T08:30:33.217Z,305
2018-05-12T08:31:13.779Z,280
2018-05-12T08:31:54.359Z,330
2018-05-12T08:32:34.933Z,350
2018-05-12T08:33:15.519Z,345
2018-05-12T08:33:56.771Z,330
2018-05-12T08:34:37.324Z,320
2018-05-12T08:35:17.913Z,325
2018-05-12T08:35:58.486Z,250
2018-05-12T08:36:39.073Z,250
2018-05-12T08:37:19.662Z,240
2018-05-12T08:38:00.256Z,240
2018-05-12T08:38:40.815Z,220
2018-05-12T08:39:21.409Z,220
2018-05-12T08:40:02.010Z,220
2018-05-12T08:40:42.592Z,220
2018-05-12T08:41:23.149Z,220
2018-05-12T08:42:03.747Z,220
2018-05-12T08:42:44.294Z,220
2018-05-12T08:43:24.861Z,205
2018-05-12T08:44:05.422Z,200
2018-05-12T08:44:46.007Z,195
2018-05-12T08:45:26.578Z,195
2018-05-12T08:46:07.155Z,225
2018-05-12T08:46:47.745Z,205
2018-05-12T08:47:28.352Z,195
2018-05-12T08:48:08.922Z,200
2018-05-12T08:48:49.519Z,190
2018-05-12T08:49:30.064Z,185
2018-05-12T08:50:10.637Z,180
2018-05-12T08:50:51.196Z,175
2018-05-12T08:51:31.745Z,170
2018-05-12T08:52:12.299Z,165
2018-05-12T08:52:52.860Z,160
2018-05-12T08:53:33.445Z,155
2018-05-12T08:54:14.038Z,155
2018-05-12T08:54:54.611Z,155
2018-05-12T08:55:35.162Z,150
2018-05-12T08:56:15.723Z,155
2018-05-12T08:56:56.319Z,160
2018-05-12T08:57:36.892Z,165
2018-05-12T08:58:17.478Z,180
2018-05-12T08:58:58.078Z,190
2018-05-12T08:59:38.635Z,200
2018-05-12T09:00:19.225Z,215
2018-05-12T09:00:59.787Z,210
2018-05-12T09:01:40.355Z,210
2018-05-12T09:02:20.906Z,210
2018-05-12T09:03:01.466Z,210
2018-05-12T09:03:42.623Z,205
2018-05-12T09:04:23.183Z,205
2018-05-12T09:05:03.775Z,215
2018-05-12T09:05:44.345Z,220
2018-05-12T09:06:24.920Z,230
2018-05-12T09:07:05.508Z,235
2018-05-12T09:07:46.048Z,240
2018-05-12T09:08:26.604Z,235
2018-05-12T09:09:07.174Z,250
2018-05-12T09:09:47.736Z,265
2018-05-12T09:10:28.303Z,245
2018-05-12T09:11:08.884Z,240
2018-05-12T09:11:49.431Z,210
2018-05-12T09:12:29.987Z,210
2018-05-12T09:13:10.550Z,210
2018-05-12T09:13:51.109Z,215
2018-05-12T09:14:31.683Z,220
2018-05-12T09:15:12.237Z,225
2018-05-12T09:15:52.817Z,225
2018-05-12T09:16:33.373Z,240
2018-05-12T09:17:13.948Z,245
2018-05-12T09:17:54.529Z,215
2018-05-12T09:18:35.260Z,215
2018-05-12T09:19:15.907Z,215
2018-05-12T09:19:56.379Z,205
2018-05-12T09:20:37.261Z,195
2018-05-12T09:21:17.822Z,190
2018-05-12T09:21:58.391Z,205
2018-05-12T09:22:38.939Z,185
2018-05-12T09:23:19.494Z,175
2018-05-12T09:24:00.054Z,170
2018-05-12T09:24:40.621Z,165
2018-05-12T09:25:21.209Z,160
2018-05-12T09:26:01.768Z,155
2018-05-12T09:26:42.341Z,140
2018-05-12T09:27:22.937Z,140
2018-05-12T09:28:03.527Z,135
2018-05-12T09:28:44.091Z,135
2018-05-12T09:29:24.650Z,135
2018-05-12T09:30:05.224Z,135
2018-05-12T09:30:45.796Z,140
2018-05-12T09:31:26.352Z,145
2018-05-12T09:32:06.964Z,150
2018-05-12T09:32:47.506Z,150
2018-05-12T09:33:28.077Z,150
2018-05-12T09:34:08.641Z,155
2018-05-12T09:34:49.216Z,160
2018-05-12T09:35:29.778Z,165
2018-05-12T09:36:10.336Z,165
2018-05-12T09:36:50.902Z,170